Harbor Point, Michigan
Current Conditions -  °F | °C
As of 3:15 PM on Friday 31 Oct 2014 (Local Time) from KMGN Reporting Station
Overcast Overcast  
Wind Chill: 24°   Ceiling: 3300
Heat Index: 32°   Visibility: 10mi
Dew Point: 24°   Wind: 9mph
Humidity: 74%   Direction: 10°N
Pressure: 30.23"   Gusts: 20mph
Location:  45.5213°N, 84.9993°W
Report Text: KMGN 311915Z AUTO 01008G17KT 10SM OVC033 00/M04 A3023 RMK AO2 T00001042
Loading
Personal Weather Stations






























Interactive Weather Map
Tropical Storm Tracking
New forecast layout! Learn more

10-Day Weather Forecast

Advertisements
Track Severe Weather on mobile